Disclaimer

Please do not use the information listed here in-flight or in-navigation, as they are not provided to us by the airports but are provided by volunteers, so they might be outdated.

Search


Regions


Airport information page

Radio informations:
CURITIBA APP - 119.95 MHz

Airport informations:
Latitude: 25° 24' 18.28" S
Longitude: 049° 13' 55.33" W
Elevation: 3057 feet - 932 meters
Operating hours: Remarks
Operating agency: Military-civil joint use airport
Timezone: UTC-3(-2DT)
Fuel: Jet A1, without icing nhibitor.

100/130 octane gasoline, leaded, MIL-L-5572F (GREEN)

Runway information:
18/36 - 4560 x 98 feet< - >1390 x 30 meters

Recent METARs:
SBBI 190900Z 15010KT 6000 -DZ OVC010 13/12 Q1018

Airport on the map: